Time;durP1;ratioP1;P1;durP2;ratioP2;P2;SDS_P1;SDS_P2;PMS_P1;PMS_P2;Temp;Humidity;BMP_temperature;BMP_pressure;BME280_temperature;BME280_humidity;BME280_pressure;Samples;Min_cycle;Max_cycle;Signal;HPM_P1;HPM_P2
2022/10/01 00:00:07;;;;;;;;;;;;;;;18.21;65.88;99728.59;4226697;33;20105;-82
2022/10/01 00:02:36;;;;;;;;;;;;;;;18.24;65.84;99739.03;4236077;33;20056;-82
2022/10/01 00:05:09;;;;;;;;;;;;;;;17.98;66.98;99797.06;4232292;33;20571;-82
2022/10/01 00:07:37;;;;;;;;;;;;;;;17.57;68.89;99872.63;4250060;33;20048;-83
2022/10/01 00:10:04;;;;;;;;;;;;;;;17.82;67.91;99825.22;4250795;33;19990;-82
2022/10/01 00:12:31;;;;;;;;;;;;;;;18.11;66.58;99738.34;4251649;33;20056;-80
2022/10/01 00:14:58;;;;;;;;;;;;;;;17.92;67.42;99726.44;4256873;33;19970;-82
2022/10/01 00:17:31;;;;;;;;;;;;;;;18.07;67.00;99731.44;4253754;33;20004;-81
2022/10/01 00:19:58;;;;;;;;;;;;;;;18.06;67.01;99735.84;4262179;33;19998;-83
2022/10/01 00:22:25;;;;;;;;;;;;;;;17.97;67.58;99741.22;4259141;33;19985;-81
2022/10/01 00:24:52;;;;;;;;;;;;;;;17.93;67.76;99747.38;3807274;33;5014018;-82
2022/10/01 00:27:19;;;;;;;;;;;;;;;18.01;67.56;99753.34;4264601;33;20018;-82
2022/10/01 00:29:45;;;;;;;;;;;;;;;17.99;67.79;99755.13;4258847;33;19990;-83
2022/10/01 00:32:13;;;;;;;;;;;;;;;18.21;66.74;99749.56;4254735;33;19986;-82
2022/10/01 00:34:40;;;;;;;;;;;;;;;18.18;66.91;99749.59;4252665;33;20358;-83
2022/10/01 00:37:09;;;;;;;;;;;;;;;18.08;67.37;99741.87;4255744;33;20331;-82
2022/10/01 00:39:36;;;;;;;;;;;;;;;17.92;67.87;99737.78;4260636;33;19986;-83
2022/10/01 00:42:05;;;;;;;;;;;;;;;18.12;67.38;99745.31;4255551;33;19986;-82
2022/10/01 00:44:35;;;;;;;;;;;;;;;18.27;66.71;99749.44;4259567;33;20044;-82
2022/10/01 00:47:04;;;;;;;;;;;;;;;17.97;67.73;99749.06;4254098;33;19981;-82
2022/10/01 00:49:32;;;;;;;;;;;;;;;18.07;67.23;99742.78;4266645;33;20041;-82
2022/10/01 00:52:00;;;;;;;;;;;;;;;18.05;67.42;99739.31;4267138;33;20058;-83
2022/10/01 00:54:30;;;;;;;;;;;;;;;18.18;67.13;99746.97;4267508;33;20025;-82
2022/10/01 00:56:58;;;;;;;;;;;;;;;18.01;67.81;99745.50;4267282;33;19985;-82
2022/10/01 00:59:25;;;;;;;;;;;;;;;18.10;67.41;99732.25;4267269;33;20004;-82
2022/10/01 01:01:52;;;;;;;;;;;;;;;18.31;66.53;99724.91;4264731;33;19997;-82
2022/10/01 01:04:20;;;;;;;;;;;;;;;18.21;66.77;99731.22;4262307;33;20344;-82
2022/10/01 01:06:54;;;;;;;;;;;;;;;18.04;67.38;99729.75;4268702;33;19985;-82
2022/10/01 01:09:25;;;;;;;;;;;;;;;18.25;66.66;99735.50;4264264;33;20281;-83
2022/10/01 01:11:56;;;;;;;;;;;;;;;18.14;67.18;99738.31;4261177;33;20033;-80
2022/10/01 01:14:26;;;;;;;;;;;;;;;18.10;67.38;99737.50;4263900;33;19986;-82
2022/10/01 01:17:07;;;;;;;;;;;;;;;18.24;66.79;99744.25;4258181;33;20042;-82
2022/10/01 01:19:40;;;;;;;;;;;;;;;18.33;66.19;99741.50;4266119;33;20399;-82
2022/10/01 01:22:07;;;;;;;;;;;;;;;18.24;66.65;99739.03;4256840;33;19997;-82
2022/10/01 01:24:39;;;;;;;;;;;;;;;18.31;66.47;99738.03;4264756;33;19996;-82
2022/10/01 01:27:15;;;;;;;;;;;;;;;18.30;66.33;99744.16;4265801;33;19993;-82
2022/10/01 01:30:03;;;;;;;;;;;;;;;18.31;66.32;99738.03;4259087;33;19981;-82
2022/10/01 01:32:33;;;;;;;;;;;;;;;18.25;66.45;99745.97;4256475;33;20024;-81
2022/10/01 01:35:01;;;;;;;;;;;;;;;18.21;66.67;99736.44;4259614;33;19974;-82
2022/10/01 01:37:30;;;;;;;;;;;;;;;18.37;65.92;99730.06;4264117;33;20688;-82
2022/10/01 01:39:57;;;;;;;;;;;;;;;18.23;66.47;99738.16;4262218;33;20036;-82
2022/10/01 01:42:27;;;;;;;;;;;;;;;18.10;66.87;99741.87;4266203;33;20268;-82
2022/10/01 01:44:57;;;;;;;;;;;;;;;18.12;66.91;99743.59;4260039;33;20009;-82
2022/10/01 01:47:24;;;;;;;;;;;;;;;18.27;66.16;99733.72;4254092;33;19982;-82
2022/10/01 01:49:51;;;;;;;;;;;;;;;18.28;66.19;99730.22;4266131;33;20029;-82
2022/10/01 01:52:18;;;;;;;;;;;;;;;18.04;67.03;99728.88;4259140;33;20471;-82
2022/10/01 01:54:48;;;;;;;;;;;;;;;18.10;67.01;99724.41;4264589;33;20038;-82
2022/10/01 01:57:15;;;;;;;;;;;;;;;18.13;66.89;99715.62;4264425;33;19989;-82
2022/10/01 01:59:43;;;;;;;;;;;;;;;18.27;66.32;99712.78;4264043;33;20019;-81
2022/10/01 02:02:24;;;;;;;;;;;;;;;18.11;66.91;99706.94;4262869;33;20003;-82
2022/10/01 02:04:55;;;;;;;;;;;;;;;18.17;66.78;99711.19;4264414;33;19992;-81
2022/10/01 02:07:25;;;;;;;;;;;;;;;18.07;67.13;99700.88;4245851;33;20056;-82
2022/10/01 02:09:52;;;;;;;;;;;;;;;18.24;66.39;99699.72;4253181;33;19989;-81
2022/10/01 02:12:23;;;;;;;;;;;;;;;18.21;66.40;99692.78;4253770;33;20042;-81
2022/10/01 02:15:07;;;;;;;;;;;;;;;18.30;66.00;99691.75;4254055;33;20003;-82
2022/10/01 02:17:40;;;;;;;;;;;;;;;18.22;66.26;99696.25;4268435;33;20000;-82
2022/10/01 02:20:09;;;;;;;;;;;;;;;18.25;66.21;99698.81;4258456;33;20012;-82
2022/10/01 02:22:39;;;;;;;;;;;;;;;18.24;66.11;99711.06;4263246;33;20327;-81
2022/10/01 02:25:05;;;;;;;;;;;;;;;18.22;66.19;99720.72;4260578;33;20435;-82
2022/10/01 02:27:35;;;;;;;;;;;;;;;18.27;66.15;99728.50;4253847;33;19990;-82
2022/10/01 02:30:06;;;;;;;;;;;;;;;18.31;65.81;99724.91;4256858;33;19990;-81
2022/10/01 02:32:33;;;;;;;;;;;;;;;18.20;66.02;99716.41;4258492;33;20004;-82
2022/10/01 02:35:00;;;;;;;;;;;;;;;18.17;66.08;99722.53;4260201;33;20305;-81
2022/10/01 02:37:27;;;;;;;;;;;;;;;18.23;65.99;99718.97;4264067;33;20006;-81
2022/10/01 02:39:54;;;;;;;;;;;;;;;18.16;66.28;99714.72;4165068;33;25608;-82
2022/10/01 02:42:21;;;;;;;;;;;;;;;18.27;65.92;99724.09;4179266;33;20426;-82
2022/10/01 02:44:48;;;;;;;;;;;;;;;18.17;66.28;99726.94;4260182;33;19985;-82
2022/10/01 02:47:32;;;;;;;;;;;;;;;18.18;66.36;99718.16;4268039;33;20024;-82
2022/10/01 02:50:00;;;;;;;;;;;;;;;18.06;66.69;99725.34;4265730;33;20003;-82
2022/10/01 02:52:32;;;;;;;;;;;;;;;18.15;66.44;99733.94;4261331;33;19985;-82
2022/10/01 02:55:03;;;;;;;;;;;;;;;18.03;66.88;99729.78;4267202;33;19985;-81
2022/10/01 02:57:29;;;;;;;;;;;;;;;17.90;67.76;99739.59;4266545;33;20009;-82
2022/10/01 02:59:58;;;;;;;;;;;;;;;18.01;67.19;99740.25;4261608;33;19997;-82
2022/10/01 03:02:30;;;;;;;;;;;;;;;18.07;66.93;99737.56;4254635;33;20030;-82
2022/10/01 03:04:57;;;;;;;;;;;;;;;18.26;66.32;99737.25;4259874;33;19994;-82
2022/10/01 03:07:24;;;;;;;;;;;;;;;18.04;67.03;99737.59;4253552;33;20000;-82
2022/10/01 03:09:51;;;;;;;;;;;;;;;18.10;66.92;99721.78;4253530;33;20324;-82
2022/10/01 03:12:19;;;;;;;;;;;;;;;18.18;66.61;99712.94;4263780;33;19990;-82
2022/10/01 03:14:47;;;;;;;;;;;;;;;18.24;66.46;99712.81;4264275;33;19992;-82
2022/10/01 03:17:14;;;;;;;;;;;;;;;18.28;66.32;99709.25;4255658;33;19993;-82
2022/10/01 03:19:41;;;;;;;;;;;;;;;18.24;66.45;99718.06;4263079;33;19989;-82
2022/10/01 03:22:08;;;;;;;;;;;;;;;18.35;66.00;99727.47;4256255;33;19989;-82
2022/10/01 03:24:35;;;;;;;;;;;;;;;18.46;65.56;99719.41;4261252;33;19992;-82
2022/10/01 03:27:02;;;;;;;;;;;;;;;17.85;67.83;99744.88;4251235;33;20418;-82
2022/10/01 03:29:28;;;;;;;;;;;;;;;18.28;66.48;99745.94;4260969;33;20122;-82
2022/10/01 03:31:55;;;;;;;;;;;;;;;18.26;66.60;99768.69;4252961;33;20336;-82
2022/10/01 03:34:22;;;;;;;;;;;;;;;18.26;66.54;99776.56;4253142;33;20470;-82
2022/10/01 03:36:51;;;;;;;;;;;;;;;18.30;66.64;99770.38;4264050;33;20042;-82
2022/10/01 03:39:18;;;;;;;;;;;;;;;18.19;67.11;99769.66;4253020;33;19982;-82
2022/10/01 03:41:45;;;;;;;;;;;;;;;18.18;67.43;99778.41;4254564;33;20687;-82
2022/10/01 03:44:12;;;;;;;;;;;;;;;18.25;67.26;99764.31;4260882;33;20021;-82
2022/10/01 03:46:40;;;;;;;;;;;;;;;18.47;66.25;99752.59;4265622;33;20029;-82
2022/10/01 03:49:06;;;;;;;;;;;;;;;18.19;67.35;99756.56;4264448;33;19973;-82
2022/10/01 03:51:36;;;;;;;;;;;;;;;18.16;67.87;99754.03;4262379;33;20359;-82
2022/10/01 03:54:04;;;;;;;;;;;;;;;18.16;67.90;99756.66;4254761;33;19996;-83
2022/10/01 03:56:32;;;;;;;;;;;;;;;18.20;67.50;99753.06;4259094;33;19989;-82
2022/10/01 03:58:59;;;;;;;;;;;;;;;18.41;66.69;99736.09;4235383;33;20332;-83
2022/10/01 04:01:27;;;;;;;;;;;;;;;18.05;68.09;99722.75;4252985;33;19985;-81
2022/10/01 04:03:54;;;;;;;;;;;;;;;18.23;67.62;99721.59;4260130;33;19974;-82
2022/10/01 04:06:21;;;;;;;;;;;;;;;18.27;67.51;99712.78;4253024;33;19982;-82
2022/10/01 04:08:48;;;;;;;;;;;;;;;18.24;67.54;99712.81;4252224;33;20359;-80
2022/10/01 04:11:15;;;;;;;;;;;;;;;18.16;67.89;99725.19;4259241;33;20624;-82
2022/10/01 04:13:42;;;;;;;;;;;;;;;18.17;67.82;99721.69;4253341;33;19992;-82
2022/10/01 04:16:09;;;;;;;;;;;;;;;18.26;67.46;99718.91;4263691;33;20325;-82
2022/10/01 04:18:36;;;;;;;;;;;;;;;18.11;67.98;99718.25;4254210;33;20001;-82
2022/10/01 04:21:02;;;;;;;;;;;;;;;18.04;68.25;99716.63;4259759;33;20073;-82
2022/10/01 04:23:29;;;;;;;;;;;;;;;18.19;67.73;99720.78;4254064;33;19981;-82
2022/10/01 04:26:00;;;;;;;;;;;;;;;18.09;68.03;99720.06;4254477;33;19998;-81
2022/10/01 04:28:27;;;;;;;;;;;;;;;18.12;68.00;99719.13;4266726;33;19989;-82
2022/10/01 04:33:40;;;;;;;;;;;;;;;18.18;67.81;99718.16;4254370;33;20038;-82
2022/10/01 04:36:07;;;;;;;;;;;;;;;18.20;67.74;99717.25;4266491;33;19993;-82
2022/10/01 04:38:34;;;;;;;;;;;;;;;18.23;67.57;99716.34;4256056;33;20004;-82
2022/10/01 04:41:01;;;;;;;;;;;;;;;18.35;67.00;99710.87;4254713;33;19985;-82
2022/10/01 04:43:28;;;;;;;;;;;;;;;18.43;66.76;99719.47;4262705;33;19997;-82
2022/10/01 04:45:54;;;;;;;;;;;;;;;18.28;67.24;99714.50;4254585;33;19994;-82
2022/10/01 04:48:21;;;;;;;;;;;;;;;18.21;67.57;99724.22;4254331;33;19996;-82
2022/10/01 04:50:48;;;;;;;;;;;;;;;18.25;67.40;99725.03;4264872;33;19993;-82
2022/10/01 04:53:15;;;;;;;;;;;;;;;18.36;66.93;99717.84;4254348;33;19969;-82
2022/10/01 04:55:42;;;;;;;;;;;;;;;18.20;67.57;99721.63;4254054;33;20364;-82
2022/10/01 04:58:09;;;;;;;;;;;;;;;18.08;67.96;99718.31;4254751;33;20312;-81
2022/10/01 05:00:36;;;;;;;;;;;;;;;18.13;67.91;99731.34;4253020;33;19989;-82
2022/10/01 05:03:05;;;;;;;;;;;;;;;18.16;67.79;99730.44;4262009;33;19977;-81
2022/10/01 05:05:33;;;;;;;;;;;;;;;18.23;67.36;99742.53;4254651;33;19985;-82
2022/10/01 05:08:00;;;;;;;;;;;;;;;18.13;67.92;99747.94;4241591;33;19984;-82
2022/10/01 05:10:27;;;;;;;;;;;;;;;17.77;69.29;99751.09;4263298;33;20004;-81
2022/10/01 05:12:54;;;;;;;;;;;;;;;18.11;68.13;99780.28;4258566;33;20286;-81
2022/10/01 05:15:21;;;;;;;;;;;;;;;18.01;68.30;99784.78;4253964;33;20005;-83
2022/10/01 05:17:48;;;;;;;;;;;;;;;17.97;68.58;99777.88;4259359;33;19989;-82
2022/10/01 05:20:18;;;;;;;;;;;;;;;18.18;67.81;99775.81;4263131;33;19981;-82
2022/10/01 05:22:46;;;;;;;;;;;;;;;18.22;67.82;99793.19;4254382;33;20034;-82
2022/10/01 05:25:13;;;;;;;;;;;;;;;18.23;67.92;99785.31;4254439;33;20429;-83
2022/10/01 05:27:40;;;;;;;;;;;;;;;18.48;66.89;99775.31;4264720;33;20086;-84
2022/10/01 05:30:08;;;;;;;;;;;;;;;18.52;66.71;99761.25;4264625;33;20004;-83
2022/10/01 05:32:35;;;;;;;;;;;;;;;18.67;66.05;99759.25;4254447;33;19982;-82
2022/10/01 05:35:02;;;;;;;;;;;;;;;18.54;66.64;99756.00;4253463;33;19990;-82
2022/10/01 05:37:29;;;;;;;;;;;;;;;18.49;66.73;99742.94;4236643;33;20000;-83
2022/10/01 05:40:01;;;;;;;;;;;;;;;18.38;67.38;99752.78;4096175;33;10011135;-82
2022/10/01 05:42:27;;;;;;;;;;;;;;;18.40;67.50;99752.72;3951280;33;5011209;-83
2022/10/01 05:44:54;;;;;;;;;;;;;;;18.23;68.16;99763.50;4262057;33;20336;-83
2022/10/01 05:47:22;;;;;;;;;;;;;;;18.28;68.12;99774.75;4256337;33;19982;-83
2022/10/01 05:49:48;;;;;;;;;;;;;;;18.24;68.33;99776.56;4254179;33;20014;-83
2022/10/01 05:52:16;;;;;;;;;;;;;;;18.32;68.02;99763.34;4257959;33;20007;-83
2022/10/01 05:54:43;;;;;;;;;;;;;;;18.12;69.00;99761.94;4256884;33;19981;-83
2022/10/01 05:57:10;;;;;;;;;;;;;;;18.28;68.47;99761.66;4264186;33;20034;-83
2022/10/01 05:59:36;;;;;;;;;;;;;;;18.40;68.08;99745.72;4253640;33;19988;-83
2022/10/01 06:02:03;;;;;;;;;;;;;;;18.56;67.25;99736.69;4257203;33;20005;-83
2022/10/01 06:04:31;;;;;;;;;;;;;;;18.48;67.67;99722.88;4257582;33;20355;-82
2022/10/01 06:06:57;;;;;;;;;;;;;;;18.33;68.07;99725.78;4265066;33;19985;-80
2022/10/01 06:09:24;;;;;;;;;;;;;;;18.67;66.76;99722.56;4259413;33;20004;-81
2022/10/01 06:11:51;;;;;;;;;;;;;;;18.68;66.78;99713.78;4266572;33;20004;-80
2022/10/01 06:14:18;;;;;;;;;;;;;;;18.73;66.71;99696.22;4267187;33;20004;-82
2022/10/01 06:16:46;;;;;;;;;;;;;;;18.58;67.54;99699.97;4263398;33;19986;-81
2022/10/01 06:19:13;;;;;;;;;;;;;;;18.46;68.19;99705.44;4257868;33;20008;-81
2022/10/01 06:21:40;;;;;;;;;;;;;;;18.52;68.08;99692.22;4262024;33;19986;-81
2022/10/01 06:24:07;;;;;;;;;;;;;;;18.65;67.53;99698.09;4268040;33;19982;-83
2022/10/01 06:26:35;;;;;;;;;;;;;;;18.60;67.79;99706.03;4266486;33;20351;-81
2022/10/01 06:29:02;;;;;;;;;;;;;;;18.45;68.60;99722.94;4262663;33;19977;-80
2022/10/01 06:31:29;;;;;;;;;;;;;;;18.47;68.63;99741.25;4259518;33;20027;-79
2022/10/01 06:33:56;;;;;;;;;;;;;;;18.53;68.45;99744.63;4258725;33;20436;-80
2022/10/01 06:36:23;;;;;;;;;;;;;;;18.59;68.27;99741.87;4256284;33;20569;-81
2022/10/01 06:38:50;;;;;;;;;;;;;;;18.75;67.64;99741.63;4264428;33;20375;-79
2022/10/01 06:41:17;;;;;;;;;;;;;;;18.53;68.46;99736.75;4257296;33;19982;-78
2022/10/01 06:43:44;;;;;;;;;;;;;;;18.87;67.07;99736.16;4256523;33;19977;-80
2022/10/01 06:46:10;;;;;;;;;;;;;;;18.85;67.27;99734.47;4253490;33;20030;-78
2022/10/01 06:48:37;;;;;;;;;;;;;;;18.82;67.40;99732.75;4255024;33;20590;-77
2022/10/01 06:51:04;;;;;;;;;;;;;;;18.77;67.77;99742.50;4259806;33;20003;-78
2022/10/01 06:53:31;;;;;;;;;;;;;;;18.94;67.09;99743.00;4255131;33;20008;-80
2022/10/01 06:56:02;;;;;;;;;;;;;;;18.76;67.92;99743.34;4258327;33;19989;-77
2022/10/01 06:58:29;;;;;;;;;;;;;;;18.70;68.33;99748.72;4264224;33;19993;-78
2022/10/01 07:01:00;;;;;;;;;;;;;;;18.93;67.48;99741.28;4253418;33;20230;-77
2022/10/01 07:03:27;;;;;;;;;;;;;;;18.91;67.30;99743.06;4253254;33;19985;-78
2022/10/01 07:06:00;;;;;;;;;;;;;;;18.96;67.27;99733.38;4264317;33;20466;-79
2022/10/01 07:08:27;;;;;;;;;;;;;;;18.93;67.46;99725.56;4259792;33;19981;-76
2022/10/01 07:10:58;;;;;;;;;;;;;;;18.96;67.37;99725.50;4266978;33;19989;-78
2022/10/01 07:13:25;;;;;;;;;;;;;;;18.95;67.60;99729.03;4266210;33;19992;-76
2022/10/01 07:15:52;;;;;;;;;;;;;;;19.10;66.93;99717.34;4259470;33;20000;-77
2022/10/01 07:18:18;;;;;;;;;;;;;;;19.06;67.11;99715.69;4255129;33;20060;-80
2022/10/01 07:20:45;;;;;;;;;;;;;;;19.03;67.08;99716.59;4259452;33;20056;-79
2022/10/01 07:23:13;;;;;;;;;;;;;;;18.96;67.59;99725.50;4267579;33;19981;-83
2022/10/01 07:25:40;;;;;;;;;;;;;;;18.94;67.49;99716.78;4263305;33;19996;-80
2022/10/01 07:28:14;;;;;;;;;;;;;;;19.07;67.10;99724.41;4251699;33;20008;-82
2022/10/01 07:30:46;;;;;;;;;;;;;;;18.92;67.82;99718.59;4259069;33;20041;-82
2022/10/01 07:33:16;;;;;;;;;;;;;;;19.00;67.58;99711.41;4263618;33;19999;-80
2022/10/01 07:35:44;;;;;;;;;;;;;;;19.04;67.78;99713.06;4263168;33;20265;-85
2022/10/01 07:38:10;;;;;;;;;;;;;;;19.10;67.82;99691.09;4257986;33;19973;-82
2022/10/01 07:40:37;;;;;;;;;;;;;;;19.33;67.06;99693.22;4255493;33;20873;-83
2022/10/01 07:43:04;;;;;;;;;;;;;;;19.14;67.73;99691.88;4254581;33;20465;-78
2022/10/01 07:45:31;;;;;;;;;;;;;;;19.11;68.23;99707.69;4258779;33;20007;-82
2022/10/01 07:48:00;;;;;;;;;;;;;;;19.15;68.22;99706.75;4234786;33;934452;-84
2022/10/01 07:50:29;;;;;;;;;;;;;;;18.91;69.05;99711.59;4263352;33;20363;-83
2022/10/01 07:52:56;;;;;;;;;;;;;;;19.10;68.49;99721.72;4258075;33;19993;-84
2022/10/01 07:55:25;;;;;;;;;;;;;;;19.23;67.88;99717.94;4264514;33;20020;-83
2022/10/01 07:57:53;;;;;;;;;;;;;;;19.36;67.14;99708.91;4253700;33;20818;-82
2022/10/01 08:00:21;;;;;;;;;;;;;;;19.26;67.67;99717.88;4264485;33;19998;-81
2022/10/01 08:02:49;;;;;;;;;;;;;;;19.37;67.38;99715.91;4259363;33;20470;-81
2022/10/01 08:05:16;;;;;;;;;;;;;;;19.29;67.73;99712.56;4254954;33;19990;-81
2022/10/01 08:07:44;;;;;;;;;;;;;;;19.20;68.21;99712.75;4258523;33;20677;-81
2022/10/01 08:10:11;;;;;;;;;;;;;;;19.20;68.19;99707.50;4265076;33;19985;-81
2022/10/01 08:12:38;;;;;;;;;;;;;;;19.16;68.33;99711.09;4263922;33;19981;-84
2022/10/01 08:15:07;;;;;;;;;;;;;;;19.16;68.41;99711.09;4281477;33;20036;-82
2022/10/01 08:17:34;;;;;;;;;;;;;;;19.04;69.15;99702.56;4281667;33;20007;-82
2022/10/01 08:20:00;;;;;;;;;;;;;;;19.01;69.02;99702.63;4265002;33;20272;-80
2022/10/01 08:22:27;;;;;;;;;;;;;;;19.15;68.64;99707.62;4252667;33;19977;-83
2022/10/01 08:24:54;;;;;;;;;;;;;;;19.27;68.08;99703.84;4252724;33;20109;-81
2022/10/01 08:27:24;;;;;;;;;;;;;;;19.39;67.72;99714.09;4252824;33;19994;-84
2022/10/01 08:29:52;;;;;;;;;;;;;;;19.42;67.59;99698.25;4252884;33;19997;-81
2022/10/01 08:32:19;;;;;;;;;;;;;;;19.51;67.40;99692.81;4252660;33;20081;-81
2022/10/01 08:34:46;;;;;;;;;;;;;;;19.36;68.12;99676.53;4263417;33;20317;-85
2022/10/01 08:37:13;;;;;;;;;;;;;;;19.55;67.45;99672.59;4255011;33;19977;-81
2022/10/01 08:39:40;;;;;;;;;;;;;;;19.03;69.39;99677.25;4254518;33;19989;-85
2022/10/01 08:42:20;;;;;;;;;;;;;;;19.24;69.10;99680.28;4265048;33;19977;-85
2022/10/01 08:44:47;;;;;;;;;;;;;;;19.24;68.98;99673.31;4266437;33;19985;-83
2022/10/01 08:47:24;;;;;;;;;;;;;;;19.04;70.01;99668.47;4261511;33;20012;-85
2022/10/01 08:49:52;;;;;;;;;;;;;;;19.35;68.82;99665.19;4259213;33;19990;-84
2022/10/01 08:52:21;;;;;;;;;;;;;;;19.26;69.33;99655.75;4267054;33;19996;-84
2022/10/01 08:54:55;;;;;;;;;;;;;;;19.16;69.63;99663.88;4267197;33;19982;-81
2022/10/01 08:57:33;;;;;;;;;;;;;;;18.99;70.28;99672.97;4263774;33;20245;-84
2022/10/01 09:00:01;;;;;;;;;;;;;;;19.39;68.85;99672.09;4255995;33;20002;-84
2022/10/01 09:02:29;;;;;;;;;;;;;;;19.35;69.28;99670.44;4254086;33;19981;-82
2022/10/01 09:04:56;;;;;;;;;;;;;;;19.33;69.62;99673.97;4265661;33;20008;-85
2022/10/01 09:07:47;;;;;;;;;;;;;;;19.44;69.31;99664.97;4266321;33;19985;-84
2022/10/01 09:10:20;;;;;;;;;;;;;;;19.39;69.38;99665.97;4266645;33;20008;-85
2022/10/01 09:12:54;;;;;;;;;;;;;;;19.42;69.26;99666.75;4267160;33;20415;-83
2022/10/01 09:15:25;;;;;;;;;;;;;;;19.47;69.30;99664.91;4265956;33;19989;-85
2022/10/01 09:17:55;;;;;;;;;;;;;;;19.81;68.01;99664.13;4265951;33;20060;-83
2022/10/01 09:20:26;;;;;;;;;;;;;;;19.91;67.89;99660.41;4266874;33;20283;-84
2022/10/01 09:22:57;;;;;;;;;;;;;;;19.64;69.86;99667.16;4253963;33;20023;-85
2022/10/01 09:25:25;;;;;;;;;;;;;;;19.87;68.81;99656.09;4266026;33;20000;-83
2022/10/01 09:28:05;;;;;;;;;;;;;;;20.09;68.38;99655.56;4263315;33;19985;-86
2022/10/01 09:30:33;;;;;;;;;;;;;;;20.31;67.66;99646.19;4237780;33;19981;-86
2022/10/01 09:33:04;;;;;;;;;;;;;;;20.36;68.05;99646.09;4249906;33;20049;-86
2022/10/01 09:35:42;;;;;;;;;;;;;;;20.35;68.07;99645.22;4251616;33;19982;-83
2022/10/01 09:38:31;;;;;;;;;;;;;;;20.47;67.59;99648.41;4252224;33;20317;-85
2022/10/01 09:40:58;;;;;;;;;;;;;;;20.32;68.43;99649.69;4253060;33;20371;-83
2022/10/01 09:43:30;;;;;;;;;;;;;;;20.37;69.13;99643.41;4251937;33;19982;-84
2022/10/01 09:45:56;;;;;;;;;;;;;;;20.39;69.42;99646.88;4252305;33;19993;-83
2022/10/01 09:48:37;;;;;;;;;;;;;;;20.48;68.74;99650.13;4247842;33;19993;-84
2022/10/01 09:51:09;;;;;;;;;;;;;;;20.66;67.93;99649.66;4252701;33;19986;-83
2022/10/01 09:53:47;;;;;;;;;;;;;;;20.67;67.81;99646.12;4250773;33;19990;-84
2022/10/01 09:56:18;;;;;;;;;;;;;;;20.59;69.32;99642.87;4258258;33;20024;-83
2022/10/01 09:58:46;;;;;;;;;;;;;;;20.48;69.93;99639.62;4250603;33;20000;-83
2022/10/01 10:01:21;;;;;;;;;;;;;;;20.70;68.43;99630.25;4251675;33;19985;-83
2022/10/01 10:03:54;;;;;;;;;;;;;;;20.66;67.27;99628.63;4249910;33;20017;-83
2022/10/01 10:06:26;;;;;;;;;;;;;;;20.66;67.10;99628.63;4245321;33;19989;-84
2022/10/01 10:08:54;;;;;;;;;;;;;;;20.70;66.57;99617.09;4256115;33;19981;-85
2022/10/01 10:11:21;;;;;;;;;;;;;;;20.86;65.42;99621.00;4257460;33;20002;-82
2022/10/01 10:13:49;;;;;;;;;;;;;;;20.73;66.22;99619.63;4257140;33;20284;-85
2022/10/01 10:16:24;;;;;;;;;;;;;;;20.77;66.25;99616.03;4253024;33;19985;-83
2022/10/01 10:19:02;;;;;;;;;;;;;;;21.19;65.62;99613.03;4253443;33;20020;-85
2022/10/01 10:21:30;;;;;;;;;;;;;;;20.73;67.11;99621.41;4247456;33;20391;-84
2022/10/01 10:23:58;;;;;;;;;;;;;;;20.81;65.63;99614.19;4244710;33;20026;-84
2022/10/01 10:26:27;;;;;;;;;;;;;;;21.01;66.22;99613.56;4251021;33;20284;-83
2022/10/01 10:28:55;;;;;;;;;;;;;;;21.06;67.00;99614.31;4245539;33;20038;-85
2022/10/01 10:31:23;;;;;;;;;;;;;;;21.09;67.31;99606.28;4251859;33;20038;-83
2022/10/01 10:33:53;;;;;;;;;;;;;;;20.58;69.98;99606.94;4243243;33;20519;-82
2022/10/01 10:36:21;;;;;;;;;;;;;;;21.12;67.40;99600.94;4239731;33;20099;-88
2022/10/01 10:38:49;;;;;;;;;;;;;;;20.59;67.93;99606.03;4251166;33;20050;-84
2022/10/01 10:41:18;;;;;;;;;;;;;;;19.94;71.75;99605.16;4246341;33;20065;-82
2022/10/01 10:43:47;;;;;;;;;;;;;;;20.11;71.61;99603.84;4239514;33;20333;-83
2022/10/01 10:46:21;;;;;;;;;;;;;;;20.72;69.01;99591.63;4250401;33;19989;-86
2022/10/01 10:48:50;;;;;;;;;;;;;;;20.99;67.84;99589.06;4249862;33;20008;-86
2022/10/01 10:51:17;;;;;;;;;;;;;;;21.42;67.06;99582.50;4250359;33;20328;-85
2022/10/01 10:53:44;;;;;;;;;;;;;;;20.86;69.15;99584.16;4240038;33;20029;-82
2022/10/01 10:56:20;;;;;;;;;;;;;;;21.37;68.32;99580.84;4043794;33;20021;-82
2022/10/01 10:58:47;;;;;;;;;;;;;;;21.06;66.53;99573.06;4007501;33;20005;-84
2022/10/01 11:01:16;;;;;;;;;;;;;;;20.86;67.54;99568.38;4204211;33;19985;-82
2022/10/01 11:03:45;;;;;;;;;;;;;;;21.54;65.08;99567.16;3989594;33;19991;-86
2022/10/01 11:06:13;;;;;;;;;;;;;;;21.12;66.71;99558.81;4012230;33;20013;-86
2022/10/01 11:08:41;;;;;;;;;;;;;;;21.34;66.96;99562.47;4249405;33;19977;-85
2022/10/01 11:11:07;;;;;;;;;;;;;;;21.54;65.64;99551.34;4259276;33;19981;-83
2022/10/01 11:13:53;;;;;;;;;;;;;;;21.40;66.00;99552.72;4212472;33;20040;-82
2022/10/01 11:16:39;;;;;;;;;;;;;;;21.47;65.88;99539.28;4213458;33;19998;-87
2022/10/01 11:19:28;;;;;;;;;;;;;;;20.98;66.60;99532.09;4263716;33;20008;-84
2022/10/01 11:22:14;;;;;;;;;;;;;;;21.36;66.50;99521.22;4261958;33;19985;-83
2022/10/01 11:24:45;;;;;;;;;;;;;;;21.67;65.36;99514.91;4267513;33;19977;-84
2022/10/01 11:27:12;;;;;;;;;;;;;;;21.40;67.25;99510.56;4265956;33;19989;-84
2022/10/01 11:29:43;;;;;;;;;;;;;;;21.37;66.71;99511.53;4267416;33;19985;-85
2022/10/01 11:32:16;;;;;;;;;;;;;;;21.99;64.95;99505.00;4266244;33;20339;-83
2022/10/01 11:34:53;;;;;;;;;;;;;;;22.45;64.16;99492.78;4267858;33;20315;-87
2022/10/01 11:37:40;;;;;;;;;;;;;;;21.83;65.97;99500.28;4264608;33;19990;-81
2022/10/01 11:40:12;;;;;;;;;;;;;;;21.58;66.18;99486.25;4255399;33;20000;-83
2022/10/01 11:42:39;;;;;;;;;;;;;;;21.68;66.61;99492.91;4265755;33;20046;-83
2022/10/01 11:45:12;;;;;;;;;;;;;;;21.64;65.03;99483.41;4266599;33;20013;-83
2022/10/01 11:47:43;;;;;;;;;;;;;;;22.09;64.27;99477.41;4265404;33;19985;-86
2022/10/01 11:50:17;;;;;;;;;;;;;;;22.83;62.78;99475.44;4264827;33;20049;-82
2022/10/01 11:52:53;;;;;;;;;;;;;;;22.87;62.16;99473.53;4268028;33;20327;-84
2022/10/01 12:01:10;;;;;;;;;;;;;;;22.29;63.69;99472.25;4257405;33;19985;-82
2022/10/01 12:03:52;;;;;;;;;;;;;;;22.31;63.22;99466.09;4258311;33;20257;-85
2022/10/01 12:06:21;;;;;;;;;;;;;;;21.88;64.06;99465.00;4254804;33;19992;-84
2022/10/01 12:09:05;;;;;;;;;;;;;;;22.15;63.72;99464.00;4255861;33;20004;-82
2022/10/01 12:11:42;;;;;;;;;;;;;;;22.09;64.49;99466.84;4262763;33;20276;-85
2022/10/01 12:14:11;;;;;;;;;;;;;;;22.50;62.89;99469.75;4264248;33;19985;-84
2022/10/01 12:16:41;;;;;;;;;;;;;;;21.98;63.18;99463.75;4262543;33;19988;-85
2022/10/01 12:19:09;;;;;;;;;;;;;;;21.27;63.73;99458.28;4267279;33;20424;-82
2022/10/01 12:21:38;;;;;;;;;;;;;;;21.12;65.82;99464.94;4261111;33;19992;-83
2022/10/01 12:24:06;;;;;;;;;;;;;;;21.75;64.48;99459.31;4256752;33;20060;-83
2022/10/01 12:26:33;;;;;;;;;;;;;;;21.07;66.01;99458.97;4260682;33;19989;-83
2022/10/01 12:29:04;;;;;;;;;;;;;;;21.44;65.12;99459.50;4254599;33;20735;-85
2022/10/01 12:31:46;;;;;;;;;;;;;;;21.87;64.08;99468.56;4265289;33;20415;-82
2022/10/01 12:34:21;;;;;;;;;;;;;;;21.75;64.17;99459.31;4266997;33;19993;-85
2022/10/01 12:36:50;;;;;;;;;;;;;;;21.79;64.34;99456.53;4256841;33;19986;-84
2022/10/01 12:39:17;;;;;;;;;;;;;;;22.10;62.11;99457.16;4254778;33;20001;-81
2022/10/01 12:41:49;;;;;;;;;;;;;;;21.71;63.83;99458.56;4254894;33;20043;-85
2022/10/01 12:44:28;;;;;;;;;;;;;;;21.70;63.68;99462.13;4264888;33;20316;-81
2022/10/01 12:47:11;;;;;;;;;;;;;;;21.45;65.08;99461.25;4259741;33;20403;-81
2022/10/01 12:49:38;;;;;;;;;;;;;;;21.50;64.45;99448.78;4254514;33;20001;-81
2022/10/01 12:52:11;;;;;;;;;;;;;;;21.59;64.95;99437.91;4254024;33;20724;-83
2022/10/01 12:54:44;;;;;;;;;;;;;;;21.75;64.68;99428.53;4267136;33;19989;-83
2022/10/01 12:57:24;;;;;;;;;;;;;;;22.05;63.50;99428.34;4268183;33;19977;-82
2022/10/01 13:00:10;;;;;;;;;;;;;;;22.07;63.20;99413.31;4255938;33;19997;-85
2022/10/01 13:02:51;;;;;;;;;;;;;;;22.37;61.69;99410.47;4262501;33;20031;-84
2022/10/01 13:05:37;;;;;;;;;;;;;;;22.41;62.51;99417.34;4264683;33;20399;-85